sensor_id;sensor_type;location;lat;lon;timestamp;temperature;humidity
40828;DHT22;26549;50.918;5.338;2023-08-31T00:01:07;14.80;99.90
40828;DHT22;26549;50.918;5.338;2023-08-31T00:03:34;14.80;99.90
40828;DHT22;26549;50.918;5.338;2023-08-31T00:06:03;14.80;99.90
40828;DHT22;26549;50.918;5.338;2023-08-31T00:08:35;14.80;99.90
40828;DHT22;26549;50.918;5.338;2023-08-31T00:11:04;14.70;99.90
40828;DHT22;26549;50.918;5.338;2023-08-31T00:13:30;14.60;99.90
40828;DHT22;26549;50.918;5.338;2023-08-31T00:15:57;14.60;99.90
40828;DHT22;26549;50.918;5.338;2023-08-31T00:18:27;14.70;99.90
40828;DHT22;26549;50.918;5.338;2023-08-31T00:20:54;14.50;99.90
40828;DHT22;26549;50.918;5.338;2023-08-31T00:23:20;14.40;99.90
40828;DHT22;26549;50.918;5.338;2023-08-31T00:25:48;14.40;99.90
40828;DHT22;26549;50.918;5.338;2023-08-31T00:28:15;14.40;99.90
40828;DHT22;26549;50.918;5.338;2023-08-31T00:30:43;14.40;99.90
40828;DHT22;26549;50.918;5.338;2023-08-31T00:33:11;14.40;99.90
40828;DHT22;26549;50.918;5.338;2023-08-31T00:35:39;14.50;99.90
40828;DHT22;26549;50.918;5.338;2023-08-31T00:38:10;14.40;99.90
40828;DHT22;26549;50.918;5.338;2023-08-31T00:40:41;14.50;99.90
40828;DHT22;26549;50.918;5.338;2023-08-31T00:43:10;14.50;99.90
40828;DHT22;26549;50.918;5.338;2023-08-31T00:45:38;14.40;99.90
40828;DHT22;26549;50.918;5.338;2023-08-31T00:48:05;14.30;99.90
40828;DHT22;26549;50.918;5.338;2023-08-31T00:50:31;14.30;99.90
40828;DHT22;26549;50.918;5.338;2023-08-31T00:52:57;14.20;99.90
40828;DHT22;26549;50.918;5.338;2023-08-31T00:55:25;14.20;99.90
40828;DHT22;26549;50.918;5.338;2023-08-31T00:57:52;14.30;99.90
40828;DHT22;26549;50.918;5.338;2023-08-31T01:00:19;14.30;99.90
40828;DHT22;26549;50.918;5.338;2023-08-31T01:03:05;14.30;99.90
40828;DHT22;26549;50.918;5.338;2023-08-31T01:05:55;14.40;99.90
40828;DHT22;26549;50.918;5.338;2023-08-31T01:14:19;14.40;99.90
40828;DHT22;26549;50.918;5.338;2023-08-31T01:16:50;14.30;99.90
40828;DHT22;26549;50.918;5.338;2023-08-31T01:21:52;14.40;99.90
40828;DHT22;26549;50.918;5.338;2023-08-31T01:24:22;14.30;99.90
40828;DHT22;26549;50.918;5.338;2023-08-31T01:26:52;14.40;99.90
40828;DHT22;26549;50.918;5.338;2023-08-31T01:29:19;14.40;99.90
40828;DHT22;26549;50.918;5.338;2023-08-31T01:31:44;14.40;99.90
40828;DHT22;26549;50.918;5.338;2023-08-31T01:34:11;14.40;99.90
40828;DHT22;26549;50.918;5.338;2023-08-31T01:36:41;14.50;99.90
40828;DHT22;26549;50.918;5.338;2023-08-31T01:39:17;14.30;99.90
40828;DHT22;26549;50.918;5.338;2023-08-31T01:41:51;14.40;99.90
40828;DHT22;26549;50.918;5.338;2023-08-31T01:44:18;14.20;99.90
40828;DHT22;26549;50.918;5.338;2023-08-31T01:46:52;14.30;99.90
40828;DHT22;26549;50.918;5.338;2023-08-31T01:49:20;14.30;99.90
40828;DHT22;26549;50.918;5.338;2023-08-31T01:51:49;14.30;99.90
40828;DHT22;26549;50.918;5.338;2023-08-31T01:54:16;14.30;99.90
40828;DHT22;26549;50.918;5.338;2023-08-31T01:56:44;14.30;99.90
40828;DHT22;26549;50.918;5.338;2023-08-31T01:59:12;14.30;99.90
40828;DHT22;26549;50.918;5.338;2023-08-31T02:01:40;14.30;99.90
40828;DHT22;26549;50.918;5.338;2023-08-31T02:04:06;14.30;99.90
40828;DHT22;26549;50.918;5.338;2023-08-31T02:06:33;14.20;99.90
40828;DHT22;26549;50.918;5.338;2023-08-31T02:09:02;14.10;99.90
40828;DHT22;26549;50.918;5.338;2023-08-31T02:11:28;14.10;99.90
40828;DHT22;26549;50.918;5.338;2023-08-31T02:13:55;14.20;99.90
40828;DHT22;26549;50.918;5.338;2023-08-31T02:16:23;14.30;99.90
40828;DHT22;26549;50.918;5.338;2023-08-31T02:18:50;14.20;99.90
40828;DHT22;26549;50.918;5.338;2023-08-31T02:21:16;14.30;99.90
40828;DHT22;26549;50.918;5.338;2023-08-31T02:23:42;14.30;99.90
40828;DHT22;26549;50.918;5.338;2023-08-31T02:26:11;14.30;99.90
40828;DHT22;26549;50.918;5.338;2023-08-31T02:28:38;14.20;99.90
40828;DHT22;26549;50.918;5.338;2023-08-31T02:31:07;14.20;99.90
40828;DHT22;26549;50.918;5.338;2023-08-31T02:33:33;14.20;99.90
40828;DHT22;26549;50.918;5.338;2023-08-31T02:36:00;14.10;99.90
40828;DHT22;26549;50.918;5.338;2023-08-31T02:38:26;14.10;99.90
40828;DHT22;26549;50.918;5.338;2023-08-31T02:40:53;14.10;99.90
40828;DHT22;26549;50.918;5.338;2023-08-31T02:43:18;14.10;99.90
40828;DHT22;26549;50.918;5.338;2023-08-31T02:45:45;14.10;99.90
40828;DHT22;26549;50.918;5.338;2023-08-31T02:48:14;14.10;99.90
40828;DHT22;26549;50.918;5.338;2023-08-31T02:50:39;14.10;99.90
40828;DHT22;26549;50.918;5.338;2023-08-31T02:53:07;14.10;99.90
40828;DHT22;26549;50.918;5.338;2023-08-31T02:55:34;14.00;99.90
40828;DHT22;26549;50.918;5.338;2023-08-31T02:58:00;14.00;99.90
40828;DHT22;26549;50.918;5.338;2023-08-31T03:00:26;14.10;99.90
40828;DHT22;26549;50.918;5.338;2023-08-31T03:02:53;14.10;99.90
40828;DHT22;26549;50.918;5.338;2023-08-31T03:05:20;14.20;99.90
40828;DHT22;26549;50.918;5.338;2023-08-31T03:07:50;14.20;99.90
40828;DHT22;26549;50.918;5.338;2023-08-31T03:10:17;14.10;99.90
40828;DHT22;26549;50.918;5.338;2023-08-31T03:12:43;14.10;99.90
40828;DHT22;26549;50.918;5.338;2023-08-31T03:15:11;14.00;99.90
40828;DHT22;26549;50.918;5.338;2023-08-31T03:17:37;14.00;99.90
40828;DHT22;26549;50.918;5.338;2023-08-31T03:20:03;14.00;99.90
40828;DHT22;26549;50.918;5.338;2023-08-31T03:22:33;14.00;99.90
40828;DHT22;26549;50.918;5.338;2023-08-31T03:25:02;14.00;99.90
40828;DHT22;26549;50.918;5.338;2023-08-31T03:27:29;14.00;99.90
40828;DHT22;26549;50.918;5.338;2023-08-31T03:29:56;14.00;99.90
40828;DHT22;26549;50.918;5.338;2023-08-31T03:32:23;14.00;99.90
40828;DHT22;26549;50.918;5.338;2023-08-31T03:34:49;14.00;99.90
40828;DHT22;26549;50.918;5.338;2023-08-31T03:37:17;13.90;99.90
40828;DHT22;26549;50.918;5.338;2023-08-31T03:39:43;13.90;99.90
40828;DHT22;26549;50.918;5.338;2023-08-31T03:42:14;14.00;99.90
40828;DHT22;26549;50.918;5.338;2023-08-31T03:44:40;13.90;99.90
40828;DHT22;26549;50.918;5.338;2023-08-31T03:47:06;14.10;99.90
40828;DHT22;26549;50.918;5.338;2023-08-31T03:49:33;14.10;99.90
40828;DHT22;26549;50.918;5.338;2023-08-31T03:52:00;14.10;99.90
40828;DHT22;26549;50.918;5.338;2023-08-31T03:54:28;14.00;99.90
40828;DHT22;26549;50.918;5.338;2023-08-31T03:56:55;14.10;99.90
40828;DHT22;26549;50.918;5.338;2023-08-31T03:59:22;14.00;99.90
40828;DHT22;26549;50.918;5.338;2023-08-31T04:01:51;14.10;99.90
40828;DHT22;26549;50.918;5.338;2023-08-31T04:04:17;14.00;99.90
40828;DHT22;26549;50.918;5.338;2023-08-31T04:06:43;14.10;99.90
40828;DHT22;26549;50.918;5.338;2023-08-31T04:09:09;14.10;99.90
40828;DHT22;26549;50.918;5.338;2023-08-31T04:11:35;14.10;99.90
40828;DHT22;26549;50.918;5.338;2023-08-31T04:14:01;14.20;99.90
40828;DHT22;26549;50.918;5.338;2023-08-31T04:16:31;14.20;99.90
40828;DHT22;26549;50.918;5.338;2023-08-31T04:18:58;14.20;99.90
40828;DHT22;26549;50.918;5.338;2023-08-31T04:21:24;14.20;99.90
40828;DHT22;26549;50.918;5.338;2023-08-31T04:23:50;14.20;99.90
40828;DHT22;26549;50.918;5.338;2023-08-31T04:26:16;14.20;99.90
40828;DHT22;26549;50.918;5.338;2023-08-31T04:28:44;14.20;99.90
40828;DHT22;26549;50.918;5.338;2023-08-31T04:31:11;14.10;99.90
40828;DHT22;26549;50.918;5.338;2023-08-31T04:33:38;14.20;99.90
40828;DHT22;26549;50.918;5.338;2023-08-31T04:36:07;14.20;99.90
40828;DHT22;26549;50.918;5.338;2023-08-31T04:38:34;14.20;99.90
40828;DHT22;26549;50.918;5.338;2023-08-31T04:41:00;14.10;99.90
40828;DHT22;26549;50.918;5.338;2023-08-31T04:43:27;14.20;99.90
40828;DHT22;26549;50.918;5.338;2023-08-31T04:45:53;14.10;99.90
40828;DHT22;26549;50.918;5.338;2023-08-31T04:48:19;14.20;99.90
40828;DHT22;26549;50.918;5.338;2023-08-31T04:50:47;14.20;99.90
40828;DHT22;26549;50.918;5.338;2023-08-31T04:53:14;14.20;99.90
40828;DHT22;26549;50.918;5.338;2023-08-31T04:55:41;14.20;99.90
40828;DHT22;26549;50.918;5.338;2023-08-31T04:58:07;14.20;99.90
40828;DHT22;26549;50.918;5.338;2023-08-31T05:00:34;14.20;99.90
40828;DHT22;26549;50.918;5.338;2023-08-31T05:03:01;14.30;99.90
40828;DHT22;26549;50.918;5.338;2023-08-31T05:05:28;14.30;99.90
40828;DHT22;26549;50.918;5.338;2023-08-31T05:07:55;14.20;99.90
40828;DHT22;26549;50.918;5.338;2023-08-31T05:10:22;14.20;99.90
40828;DHT22;26549;50.918;5.338;2023-08-31T05:12:50;14.20;99.90
40828;DHT22;26549;50.918;5.338;2023-08-31T05:15:17;14.20;99.90
40828;DHT22;26549;50.918;5.338;2023-08-31T05:17:45;14.30;99.90
40828;DHT22;26549;50.918;5.338;2023-08-31T05:20:10;14.30;99.90
40828;DHT22;26549;50.918;5.338;2023-08-31T05:22:37;14.30;99.90
40828;DHT22;26549;50.918;5.338;2023-08-31T05:25:03;14.30;99.90
40828;DHT22;26549;50.918;5.338;2023-08-31T05:27:32;14.30;99.90
40828;DHT22;26549;50.918;5.338;2023-08-31T05:29:58;14.30;99.90
40828;DHT22;26549;50.918;5.338;2023-08-31T05:32:27;14.30;99.90
40828;DHT22;26549;50.918;5.338;2023-08-31T05:34:56;14.30;99.90
40828;DHT22;26549;50.918;5.338;2023-08-31T05:37:23;14.30;99.90
40828;DHT22;26549;50.918;5.338;2023-08-31T05:39:50;14.30;99.90
40828;DHT22;26549;50.918;5.338;2023-08-31T05:42:16;14.50;99.90
40828;DHT22;26549;50.918;5.338;2023-08-31T05:44:41;14.60;99.90
40828;DHT22;26549;50.918;5.338;2023-08-31T05:47:07;14.70;99.90
40828;DHT22;26549;50.918;5.338;2023-08-31T05:49:34;14.90;99.90
40828;DHT22;26549;50.918;5.338;2023-08-31T05:52:00;14.90;99.90
40828;DHT22;26549;50.918;5.338;2023-08-31T05:54:27;14.90;99.90
40828;DHT22;26549;50.918;5.338;2023-08-31T05:56:55;14.80;99.90
40828;DHT22;26549;50.918;5.338;2023-08-31T05:59:21;15.00;99.90
40828;DHT22;26549;50.918;5.338;2023-08-31T06:01:47;15.00;99.90
40828;DHT22;26549;50.918;5.338;2023-08-31T06:04:15;15.20;99.90
40828;DHT22;26549;50.918;5.338;2023-08-31T06:06:41;15.30;99.90
40828;DHT22;26549;50.918;5.338;2023-08-31T06:09:06;15.40;99.90
40828;DHT22;26549;50.918;5.338;2023-08-31T06:11:33;15.30;99.90
40828;DHT22;26549;50.918;5.338;2023-08-31T06:14:01;15.50;99.90
40828;DHT22;26549;50.918;5.338;2023-08-31T06:16:27;15.60;99.90
40828;DHT22;26549;50.918;5.338;2023-08-31T06:18:53;15.60;99.90
40828;DHT22;26549;50.918;5.338;2023-08-31T06:21:18;15.60;99.90
40828;DHT22;26549;50.918;5.338;2023-08-31T06:23:44;15.70;99.90
40828;DHT22;26549;50.918;5.338;2023-08-31T06:26:10;15.90;99.90
40828;DHT22;26549;50.918;5.338;2023-08-31T06:28:38;15.90;99.90
40828;DHT22;26549;50.918;5.338;2023-08-31T06:31:04;16.00;99.90
40828;DHT22;26549;50.918;5.338;2023-08-31T06:33:31;16.10;99.90
40828;DHT22;26549;50.918;5.338;2023-08-31T06:35:57;16.00;99.90
40828;DHT22;26549;50.918;5.338;2023-08-31T06:38:22;16.10;99.90
40828;DHT22;26549;50.918;5.338;2023-08-31T06:40:48;16.00;99.90
40828;DHT22;26549;50.918;5.338;2023-08-31T06:43:14;15.90;99.90
40828;DHT22;26549;50.918;5.338;2023-08-31T06:45:40;16.10;99.90
40828;DHT22;26549;50.918;5.338;2023-08-31T06:48:06;16.10;99.90
40828;DHT22;26549;50.918;5.338;2023-08-31T06:50:33;16.10;99.90
40828;DHT22;26549;50.918;5.338;2023-08-31T06:53:01;16.20;99.90
40828;DHT22;26549;50.918;5.338;2023-08-31T06:55:26;16.20;99.90
40828;DHT22;26549;50.918;5.338;2023-08-31T06:57:52;16.50;99.90
40828;DHT22;26549;50.918;5.338;2023-08-31T07:00:18;16.60;99.90
40828;DHT22;26549;50.918;5.338;2023-08-31T07:02:44;16.70;99.90
40828;DHT22;26549;50.918;5.338;2023-08-31T07:05:10;16.70;99.90
40828;DHT22;26549;50.918;5.338;2023-08-31T07:07:36;16.80;99.90
40828;DHT22;26549;50.918;5.338;2023-08-31T07:10:02;16.80;99.90
40828;DHT22;26549;50.918;5.338;2023-08-31T07:12:28;17.00;99.90
40828;DHT22;26549;50.918;5.338;2023-08-31T07:14:54;17.00;99.90
40828;DHT22;26549;50.918;5.338;2023-08-31T07:17:20;17.00;99.90
40828;DHT22;26549;50.918;5.338;2023-08-31T07:19:45;17.10;99.90
40828;DHT22;26549;50.918;5.338;2023-08-31T07:22:11;17.20;99.90
40828;DHT22;26549;50.918;5.338;2023-08-31T07:24:37;17.20;99.90
40828;DHT22;26549;50.918;5.338;2023-08-31T07:27:04;17.20;99.90
40828;DHT22;26549;50.918;5.338;2023-08-31T07:29:30;17.10;99.90
40828;DHT22;26549;50.918;5.338;2023-08-31T07:31:57;17.10;99.90
40828;DHT22;26549;50.918;5.338;2023-08-31T07:34:23;17.10;99.90
40828;DHT22;26549;50.918;5.338;2023-08-31T07:36:49;17.10;99.90
40828;DHT22;26549;50.918;5.338;2023-08-31T07:39:14;17.10;99.90
40828;DHT22;26549;50.918;5.338;2023-08-31T07:41:43;17.10;99.90
40828;DHT22;26549;50.918;5.338;2023-08-31T07:44:10;17.30;99.90
40828;DHT22;26549;50.918;5.338;2023-08-31T07:46:36;17.30;99.90
40828;DHT22;26549;50.918;5.338;2023-08-31T07:49:02;17.40;99.90
40828;DHT22;26549;50.918;5.338;2023-08-31T07:51:29;17.50;99.90
40828;DHT22;26549;50.918;5.338;2023-08-31T07:53:55;17.50;99.90
40828;DHT22;26549;50.918;5.338;2023-08-31T07:56:24;17.50;99.90
40828;DHT22;26549;50.918;5.338;2023-08-31T07:58:51;17.70;99.90
40828;DHT22;26549;50.918;5.338;2023-08-31T08:01:17;17.80;99.90
40828;DHT22;26549;50.918;5.338;2023-08-31T08:03:43;17.80;99.90
40828;DHT22;26549;50.918;5.338;2023-08-31T08:06:09;17.90;99.90
40828;DHT22;26549;50.918;5.338;2023-08-31T08:08:36;17.90;99.90
40828;DHT22;26549;50.918;5.338;2023-08-31T08:11:03;18.00;99.90
40828;DHT22;26549;50.918;5.338;2023-08-31T08:13:32;17.90;99.90
40828;DHT22;26549;50.918;5.338;2023-08-31T08:15:58;18.00;99.90
40828;DHT22;26549;50.918;5.338;2023-08-31T08:18:24;18.00;99.90
40828;DHT22;26549;50.918;5.338;2023-08-31T08:20:53;18.20;99.90
40828;DHT22;26549;50.918;5.338;2023-08-31T08:23:19;18.20;99.90
40828;DHT22;26549;50.918;5.338;2023-08-31T08:25:47;18.20;99.90
40828;DHT22;26549;50.918;5.338;2023-08-31T08:28:13;18.30;99.90
40828;DHT22;26549;50.918;5.338;2023-08-31T08:30:38;18.40;99.90
40828;DHT22;26549;50.918;5.338;2023-08-31T08:33:04;18.50;99.90
40828;DHT22;26549;50.918;5.338;2023-08-31T08:35:32;18.60;99.90
40828;DHT22;26549;50.918;5.338;2023-08-31T08:37:58;18.60;99.90
40828;DHT22;26549;50.918;5.338;2023-08-31T08:40:25;18.70;99.90
40828;DHT22;26549;50.918;5.338;2023-08-31T08:42:53;18.70;99.90
40828;DHT22;26549;50.918;5.338;2023-08-31T08:45:20;18.60;99.90
40828;DHT22;26549;50.918;5.338;2023-08-31T08:47:49;18.70;99.90
40828;DHT22;26549;50.918;5.338;2023-08-31T08:50:17;18.70;99.90
40828;DHT22;26549;50.918;5.338;2023-08-31T08:52:43;18.80;99.90
40828;DHT22;26549;50.918;5.338;2023-08-31T08:55:09;18.90;99.90
40828;DHT22;26549;50.918;5.338;2023-08-31T08:57:35;18.90;99.90
40828;DHT22;26549;50.918;5.338;2023-08-31T09:00:01;18.90;99.90
40828;DHT22;26549;50.918;5.338;2023-08-31T09:02:28;19.00;99.90
40828;DHT22;26549;50.918;5.338;2023-08-31T09:04:57;19.10;99.90
40828;DHT22;26549;50.918;5.338;2023-08-31T09:07:29;19.40;99.90
40828;DHT22;26549;50.918;5.338;2023-08-31T09:09:55;19.40;99.90
40828;DHT22;26549;50.918;5.338;2023-08-31T09:12:23;19.30;99.90
40828;DHT22;26549;50.918;5.338;2023-08-31T09:15:01;19.50;99.90
40828;DHT22;26549;50.918;5.338;2023-08-31T09:17:38;19.60;99.90
40828;DHT22;26549;50.918;5.338;2023-08-31T09:20:04;19.80;99.90
40828;DHT22;26549;50.918;5.338;2023-08-31T09:22:33;20.00;99.90
40828;DHT22;26549;50.918;5.338;2023-08-31T09:24:59;19.70;99.90
40828;DHT22;26549;50.918;5.338;2023-08-31T09:27:26;19.60;99.90
40828;DHT22;26549;50.918;5.338;2023-08-31T09:29:56;19.70;99.90
40828;DHT22;26549;50.918;5.338;2023-08-31T09:32:25;19.70;99.90
40828;DHT22;26549;50.918;5.338;2023-08-31T09:34:51;19.70;99.90
40828;DHT22;26549;50.918;5.338;2023-08-31T09:37:16;19.80;99.90
40828;DHT22;26549;50.918;5.338;2023-08-31T09:39:42;19.70;99.90
40828;DHT22;26549;50.918;5.338;2023-08-31T09:42:08;19.50;99.90
40828;DHT22;26549;50.918;5.338;2023-08-31T09:44:40;19.50;99.90
40828;DHT22;26549;50.918;5.338;2023-08-31T09:47:05;19.40;99.90
40828;DHT22;26549;50.918;5.338;2023-08-31T09:49:32;19.50;99.90
40828;DHT22;26549;50.918;5.338;2023-08-31T09:52:03;19.90;99.90
40828;DHT22;26549;50.918;5.338;2023-08-31T09:54:29;20.00;99.90
40828;DHT22;26549;50.918;5.338;2023-08-31T09:56:56;20.10;99.90
40828;DHT22;26549;50.918;5.338;2023-08-31T09:59:25;20.00;99.90
40828;DHT22;26549;50.918;5.338;2023-08-31T10:01:51;19.90;99.90
40828;DHT22;26549;50.918;5.338;2023-08-31T10:04:17;20.00;99.90
40828;DHT22;26549;50.918;5.338;2023-08-31T10:06:43;20.20;99.90
40828;DHT22;26549;50.918;5.338;2023-08-31T10:09:10;20.10;99.90
40828;DHT22;26549;50.918;5.338;2023-08-31T10:11:38;20.10;99.90
40828;DHT22;26549;50.918;5.338;2023-08-31T10:14:05;20.10;99.90
40828;DHT22;26549;50.918;5.338;2023-08-31T10:16:32;20.20;99.90
40828;DHT22;26549;50.918;5.338;2023-08-31T10:18:58;20.10;99.90
40828;DHT22;26549;50.918;5.338;2023-08-31T10:21:24;20.10;99.90
40828;DHT22;26549;50.918;5.338;2023-08-31T10:23:54;20.10;99.90
40828;DHT22;26549;50.918;5.338;2023-08-31T10:26:33;20.20;99.90
40828;DHT22;26549;50.918;5.338;2023-08-31T10:28:59;20.20;99.90
40828;DHT22;26549;50.918;5.338;2023-08-31T10:31:30;20.40;99.90
40828;DHT22;26549;50.918;5.338;2023-08-31T10:34:01;20.70;99.90
40828;DHT22;26549;50.918;5.338;2023-08-31T10:36:44;20.60;99.90
40828;DHT22;26549;50.918;5.338;2023-08-31T10:39:14;20.60;99.90
40828;DHT22;26549;50.918;5.338;2023-08-31T10:42:05;20.60;99.90
40828;DHT22;26549;50.918;5.338;2023-08-31T10:44:31;20.60;99.90
40828;DHT22;26549;50.918;5.338;2023-08-31T10:47:04;20.50;99.90
40828;DHT22;26549;50.918;5.338;2023-08-31T10:49:31;20.60;99.90
40828;DHT22;26549;50.918;5.338;2023-08-31T10:52:15;20.70;99.90
40828;DHT22;26549;50.918;5.338;2023-08-31T10:54:46;20.70;99.90
40828;DHT22;26549;50.918;5.338;2023-08-31T10:57:14;20.70;99.90
40828;DHT22;26549;50.918;5.338;2023-08-31T10:59:50;20.80;99.90
40828;DHT22;26549;50.918;5.338;2023-08-31T11:02:38;21.00;99.90
40828;DHT22;26549;50.918;5.338;2023-08-31T11:05:17;21.00;99.90
40828;DHT22;26549;50.918;5.338;2023-08-31T11:07:47;21.20;99.90
40828;DHT22;26549;50.918;5.338;2023-08-31T11:10:17;21.30;99.90
40828;DHT22;26549;50.918;5.338;2023-08-31T11:12:47;21.40;99.90
40828;DHT22;26549;50.918;5.338;2023-08-31T11:15:15;21.30;99.90
40828;DHT22;26549;50.918;5.338;2023-08-31T11:17:41;21.50;99.90
40828;DHT22;26549;50.918;5.338;2023-08-31T11:20:09;21.30;99.90
40828;DHT22;26549;50.918;5.338;2023-08-31T11:22:41;21.10;99.90
40828;DHT22;26549;50.918;5.338;2023-08-31T11:25:09;21.00;99.90
40828;DHT22;26549;50.918;5.338;2023-08-31T11:27:35;20.90;99.90
40828;DHT22;26549;50.918;5.338;2023-08-31T11:30:00;21.00;99.90
40828;DHT22;26549;50.918;5.338;2023-08-31T11:32:26;21.00;99.90
40828;DHT22;26549;50.918;5.338;2023-08-31T11:34:52;21.10;99.90
40828;DHT22;26549;50.918;5.338;2023-08-31T11:37:19;21.40;99.90
40828;DHT22;26549;50.918;5.338;2023-08-31T11:39:52;21.50;99.90
40828;DHT22;26549;50.918;5.338;2023-08-31T11:42:20;21.50;99.90
40828;DHT22;26549;50.918;5.338;2023-08-31T11:44:50;21.50;99.90
40828;DHT22;26549;50.918;5.338;2023-08-31T11:47:17;21.30;99.90
40828;DHT22;26549;50.918;5.338;2023-08-31T11:49:43;21.20;99.90
40828;DHT22;26549;50.918;5.338;2023-08-31T11:52:10;21.30;99.90
40828;DHT22;26549;50.918;5.338;2023-08-31T11:54:38;21.20;99.90
40828;DHT22;26549;50.918;5.338;2023-08-31T11:57:07;21.30;99.90
40828;DHT22;26549;50.918;5.338;2023-08-31T11:59:35;21.10;99.90
40828;DHT22;26549;50.918;5.338;2023-08-31T12:02:02;21.00;99.90
40828;DHT22;26549;50.918;5.338;2023-08-31T12:04:30;20.90;99.90
40828;DHT22;26549;50.918;5.338;2023-08-31T12:07:02;21.00;99.90
40828;DHT22;26549;50.918;5.338;2023-08-31T12:09:32;21.00;99.90
40828;DHT22;26549;50.918;5.338;2023-08-31T12:11:58;20.80;99.90
40828;DHT22;26549;50.918;5.338;2023-08-31T12:14:25;20.80;99.90
40828;DHT22;26549;50.918;5.338;2023-08-31T12:16:59;21.10;99.90
40828;DHT22;26549;50.918;5.338;2023-08-31T12:19:28;21.30;99.90
40828;DHT22;26549;50.918;5.338;2023-08-31T12:21:54;21.30;99.90
40828;DHT22;26549;50.918;5.338;2023-08-31T12:24:20;21.50;99.90
40828;DHT22;26549;50.918;5.338;2023-08-31T12:26:47;21.30;99.90
40828;DHT22;26549;50.918;5.338;2023-08-31T12:29:13;21.30;99.90
40828;DHT22;26549;50.918;5.338;2023-08-31T12:31:39;21.30;99.90
40828;DHT22;26549;50.918;5.338;2023-08-31T12:34:05;21.20;99.90
40828;DHT22;26549;50.918;5.338;2023-08-31T12:36:34;21.20;99.90
40828;DHT22;26549;50.918;5.338;2023-08-31T12:39:03;21.20;99.90
40828;DHT22;26549;50.918;5.338;2023-08-31T12:41:32;21.20;99.90
40828;DHT22;26549;50.918;5.338;2023-08-31T12:43:58;21.30;99.90
40828;DHT22;26549;50.918;5.338;2023-08-31T12:46:24;21.20;99.90
40828;DHT22;26549;50.918;5.338;2023-08-31T12:48:50;21.30;99.90
40828;DHT22;26549;50.918;5.338;2023-08-31T12:51:18;21.30;99.90
40828;DHT22;26549;50.918;5.338;2023-08-31T12:53:44;21.30;99.90
40828;DHT22;26549;50.918;5.338;2023-08-31T12:56:10;21.30;99.90
40828;DHT22;26549;50.918;5.338;2023-08-31T12:58:38;21.20;99.90
40828;DHT22;26549;50.918;5.338;2023-08-31T13:01:04;21.10;99.90
40828;DHT22;26549;50.918;5.338;2023-08-31T13:03:30;21.10;99.90
40828;DHT22;26549;50.918;5.338;2023-08-31T13:05:56;21.00;99.90
40828;DHT22;26549;50.918;5.338;2023-08-31T13:08:21;21.00;99.90
40828;DHT22;26549;50.918;5.338;2023-08-31T13:10:54;21.00;99.90
40828;DHT22;26549;50.918;5.338;2023-08-31T13:13:21;21.10;99.90
40828;DHT22;26549;50.918;5.338;2023-08-31T13:15:47;21.10;99.90
40828;DHT22;26549;50.918;5.338;2023-08-31T13:18:13;21.00;99.90
40828;DHT22;26549;50.918;5.338;2023-08-31T13:20:39;21.10;99.90
40828;DHT22;26549;50.918;5.338;2023-08-31T13:23:05;21.20;99.90
40828;DHT22;26549;50.918;5.338;2023-08-31T13:25:31;21.30;99.90
40828;DHT22;26549;50.918;5.338;2023-08-31T13:27:56;21.30;99.90
40828;DHT22;26549;50.918;5.338;2023-08-31T13:30:22;21.20;99.90
40828;DHT22;26549;50.918;5.338;2023-08-31T13:32:48;21.20;99.90
40828;DHT22;26549;50.918;5.338;2023-08-31T13:35:14;21.10;99.90
40828;DHT22;26549;50.918;5.338;2023-08-31T13:37:40;21.10;99.90
40828;DHT22;26549;50.918;5.338;2023-08-31T13:40:06;21.10;99.90
40828;DHT22;26549;50.918;5.338;2023-08-31T13:42:36;21.10;99.90
40828;DHT22;26549;50.918;5.338;2023-08-31T13:45:06;21.20;99.90
40828;DHT22;26549;50.918;5.338;2023-08-31T13:47:33;21.20;99.90
40828;DHT22;26549;50.918;5.338;2023-08-31T13:50:00;21.20;99.90
40828;DHT22;26549;50.918;5.338;2023-08-31T13:52:25;21.10;99.90
40828;DHT22;26549;50.918;5.338;2023-08-31T13:54:52;21.00;99.90
40828;DHT22;26549;50.918;5.338;2023-08-31T13:57:18;20.90;99.90
40828;DHT22;26549;50.918;5.338;2023-08-31T13:59:44;20.90;99.90
40828;DHT22;26549;50.918;5.338;2023-08-31T14:02:10;20.90;99.90
40828;DHT22;26549;50.918;5.338;2023-08-31T14:04:36;20.90;99.90
40828;DHT22;26549;50.918;5.338;2023-08-31T14:07:02;20.90;99.90
40828;DHT22;26549;50.918;5.338;2023-08-31T14:09:28;20.80;99.90
40828;DHT22;26549;50.918;5.338;2023-08-31T14:11:54;20.90;99.90
40828;DHT22;26549;50.918;5.338;2023-08-31T14:14:21;20.90;99.90
40828;DHT22;26549;50.918;5.338;2023-08-31T14:16:47;20.80;99.90
40828;DHT22;26549;50.918;5.338;2023-08-31T14:19:14;20.90;99.90
40828;DHT22;26549;50.918;5.338;2023-08-31T14:21:40;20.90;99.90
40828;DHT22;26549;50.918;5.338;2023-08-31T14:24:07;20.90;99.90
40828;DHT22;26549;50.918;5.338;2023-08-31T14:26:32;20.80;99.90
40828;DHT22;26549;50.918;5.338;2023-08-31T14:28:58;20.90;99.90
40828;DHT22;26549;50.918;5.338;2023-08-31T14:31:24;21.10;99.90
40828;DHT22;26549;50.918;5.338;2023-08-31T14:33:50;21.20;99.90
40828;DHT22;26549;50.918;5.338;2023-08-31T14:36:17;21.10;99.90
40828;DHT22;26549;50.918;5.338;2023-08-31T14:38:44;21.20;99.90
40828;DHT22;26549;50.918;5.338;2023-08-31T14:41:11;21.50;99.90
40828;DHT22;26549;50.918;5.338;2023-08-31T14:43:37;21.40;99.90
40828;DHT22;26549;50.918;5.338;2023-08-31T14:46:03;21.30;99.90
40828;DHT22;26549;50.918;5.338;2023-08-31T14:48:30;21.30;99.90
40828;DHT22;26549;50.918;5.338;2023-08-31T14:50:56;21.40;99.90
40828;DHT22;26549;50.918;5.338;2023-08-31T14:53:24;21.40;99.90
40828;DHT22;26549;50.918;5.338;2023-08-31T14:55:51;21.30;99.90
40828;DHT22;26549;50.918;5.338;2023-08-31T14:58:18;21.40;99.90
40828;DHT22;26549;50.918;5.338;2023-08-31T15:00:44;21.30;99.90
40828;DHT22;26549;50.918;5.338;2023-08-31T15:03:10;21.30;99.90
40828;DHT22;26549;50.918;5.338;2023-08-31T15:05:36;21.20;99.90
40828;DHT22;26549;50.918;5.338;2023-08-31T15:08:05;21.30;99.90
40828;DHT22;26549;50.918;5.338;2023-08-31T15:10:31;21.40;99.90
40828;DHT22;26549;50.918;5.338;2023-08-31T15:12:57;21.40;99.90
40828;DHT22;26549;50.918;5.338;2023-08-31T15:15:27;21.30;99.90
40828;DHT22;26549;50.918;5.338;2023-08-31T15:17:53;21.20;99.90
40828;DHT22;26549;50.918;5.338;2023-08-31T15:20:19;21.20;99.90
40828;DHT22;26549;50.918;5.338;2023-08-31T15:22:45;21.30;99.90
40828;DHT22;26549;50.918;5.338;2023-08-31T15:25:11;21.20;99.90
40828;DHT22;26549;50.918;5.338;2023-08-31T15:27:37;21.20;99.90
40828;DHT22;26549;50.918;5.338;2023-08-31T15:30:04;21.20;99.90
40828;DHT22;26549;50.918;5.338;2023-08-31T15:32:32;21.10;99.90
40828;DHT22;26549;50.918;5.338;2023-08-31T15:34:58;21.20;99.90
40828;DHT22;26549;50.918;5.338;2023-08-31T15:37:24;21.10;99.90
40828;DHT22;26549;50.918;5.338;2023-08-31T15:39:50;21.20;99.90